Bruck an der Leitha, Austria
Current Conditions -  °F | °C
As of 12:50 PM on Thursday 29 Jan 2015 (Local Time) from LOWW Reporting Station
Broken Clouds Broken Clouds  
Wind Chill: 32°   Ceiling: 6500
Heat Index: 37°   Visibility: 6mi
Dew Point: 30°   Wind: 7mph
Humidity: 75%   Direction: 160°SSE
Pressure: 29.5"   Gusts: NA
Location:  48.02°N, 16.78°E
Report Text: LOWW 291150Z 16006KT 9999 FEW050 BKN065 03/M01 Q0999 WS ALL RWY NOSIG
Loading
Personal Weather Stations






























Interactive Weather Map New forecast layout! Learn more

10-Day Weather Forecast

Advertisements
Track Severe Weather on mobile